Flight Track Log - Related Links

Times and Time Zones

All times are in EDT time to prevent confusion due to time zone crossing. See the GJS3710 flight status page for this flight to view local times or setup timezone preferences in your user account.

Time Position Orientation Groundspeed Altitude Reporting Facility
EDT Latitude Longitude Course Direction KTS MPH feet Rate Location/Type
Mon 03:34:47 PM 30.0114 -90.2428 North 150 173 700  Level Houston Center
Mon 03:35:35 PM 30.0464 -90.2319 15° North 175 201 2,100 1,891 Climbing Houston Center
Mon 03:36:19 PM 30.0900 -90.2281 North 218 251 3,600 1,967 Climbing Houston Center
Mon 03:36:36 PM 30.1011 -90.2417 313° West 245 282 4,100 1,935 Climbing Houston Center
Mon 03:37:21 PM 30.1064 -90.3039 276° West 248 285 5,600 2,243 Climbing Houston Center
Mon 03:38:00 PM 30.3696 -90.4515 337° Northwest  Level FlightAware Approximate
Mon 03:38:23 PM 30.1111 -90.3906 274° West 262 302 8,100  Level Houston Center
Mon 03:39:00 PM 30.4705 -90.4500 North  Level FlightAware Approximate
Mon 03:39:26 PM 30.1844 -90.4150 344° North 284 327 10,500  Level Houston Center
Mon 03:40:00 PM 30.5768 -90.4452 North  Level FlightAware Approximate
Mon 03:40:28 PM 30.2722 -90.4161 359° North 309 356 12,000  Level Houston Center
Mon 03:41:30 PM 30.3600 -90.4464 343° North 343 395 13,800 1,645 Climbing Houston Center
Mon 03:42:32 PM 30.4397 -90.5133 324° Northwest 355 409 15,400 1,790 Climbing Houston Center
Mon 03:43:34 PM 30.5567 -90.5500 345° North 367 422 17,500 1,790 Climbing Houston Center
Mon 03:44:36 PM 30.6597 -90.5575 356° North 369 425 19,100 1,306 Climbing Houston Center
Mon 03:45:38 PM 30.7661 -90.5494 North 378 435 20,200 1,065 Climbing Houston Center
Mon 03:46:40 PM 30.8775 -90.5364 North 392 451 21,300 1,065 Climbing Houston Center
Mon 03:47:42 PM 30.9911 -90.5261 North 402 463 22,400 1,065 Climbing Houston Center
Mon 03:48:44 PM 31.1069 -90.5147 North 412 474 23,500 1,161 Climbing Houston Center
Mon 03:49:46 PM 31.2489 -90.5014 North 421 484 24,800 1,152 Climbing Houston Center
Mon 03:50:49 PM 31.3683 -90.4892 North 427 491 25,900 1,008 Climbing Houston Center
Mon 03:51:51 PM 31.4900 -90.4778 North 433 498 26,900 823 Climbing Houston Center
Mon 03:52:53 PM 31.6150 -90.4656 North 443 510 27,600 774 Climbing Houston Center
Mon 03:53:55 PM 31.7417 -90.4525 North 453 521 28,500 968 Climbing Houston Center
Mon 03:54:57 PM 31.8686 -90.4403 North 456 525 29,600 1,161 Climbing Houston Center
Mon 03:55:59 PM 32.0200 -90.4247 North 455 524 30,900 871 Climbing Houston Center
Mon 03:57:01 PM 32.1456 -90.4111 North 453 521 31,400 519 Climbing Houston Center
Mon 03:57:20 PM 32.1917 -90.4089 North 456 525 31,600 532 Climbing Memphis Center
Mon 03:58:20 PM 32.3211 -90.3942 North 462 532 32,100 500 Climbing Memphis Center
Mon 03:59:20 PM 32.4528 -90.3794 North 464 534 32,600 550 Climbing Memphis Center
Mon 04:00:20 PM 32.5842 -90.3672 North 469 540 33,200 700 Climbing Memphis Center
Mon 04:01:20 PM 32.7136 -90.3572 North 463 533 34,000 850 Climbing Memphis Center
Mon 04:02:20 PM 32.8411 -90.3425 North 463 533 34,900 900 Climbing Memphis Center
Mon 04:03:20 PM 32.9642 -90.3325 North 456 525 35,800 900 Climbing Memphis Center
Mon 04:04:20 PM 33.0853 -90.3200 North 450 518 36,700 600 Climbing Memphis Center
Mon 04:05:20 PM 33.2064 -90.3075 North 439 505 37,000 150 Climbing Memphis Center
Mon 04:06:20 PM 33.3253 -90.2950 North 433 498 37,000  Level Memphis Center
Mon 04:07:20 PM 33.4400 -90.2825 North 420 483 37,000  Level Memphis Center
Mon 04:08:20 PM 33.5569 -90.2625 North 420 483 37,000  Level Memphis Center
Mon 04:09:20 PM 33.6739 -90.2397 North 420 483 37,000  Level Memphis Center
Mon 04:10:20 PM 33.7864 -90.2197 North 420 483 37,000  Level Memphis Center
Mon 04:11:20 PM 33.9014 -90.1969 North 413 475 37,000  Level Memphis Center
Mon 04:12:20 PM 34.0139 -90.1767 North 408 470 37,000  Level Memphis Center
Mon 04:13:20 PM 34.1308 -90.1539 North 408 470 37,000  Level Memphis Center
Mon 04:14:20 PM 34.2414 -90.1336 North 408 470 37,000  Level Memphis Center
Mon 04:15:20 PM 34.3581 -90.1131 North 408 470 37,000  Level Memphis Center
Mon 04:16:20 PM 34.4689 -90.1253 355° North 403 464 37,000  Level Memphis Center
Mon 04:17:20 PM 34.5794 -90.1528 348° North 405 466 37,000  Level Memphis Center
Mon 04:18:20 PM 34.6858 -90.1678 353° North 410 472 37,000  Level Memphis Center
Mon 04:19:20 PM 34.8006 -90.1775 356° North 420 483 37,000  Level Memphis Center
Mon 04:20:20 PM 34.9217 -90.1850 357° North 425 489 37,000  Level Memphis Center
Mon 04:21:20 PM 35.0386 -90.1897 358° North 420 483 37,000  Level Memphis Center
Mon 04:22:20 PM 35.1678 -90.2022 355° North 420 483 37,000  Level Memphis Center
Mon 04:23:20 PM 35.2847 -90.2069 358° North 420 483 37,000  Level Memphis Center
Mon 04:24:20 PM 35.4014 -90.2169 356° North 420 483 37,000  Level Memphis Center
Mon 04:25:20 PM 35.5183 -90.2244 357° North 420 483 37,000  Level Memphis Center
Mon 04:26:20 PM 35.6331 -90.2319 357° North 420 483 37,000  Level Memphis Center
Mon 04:27:20 PM 35.7289 -90.2419 355° North 412 474 37,000  Level Memphis Center
Mon 04:28:20 PM 35.8478 -90.2519 356° North 407 468 37,000  Level Memphis Center
Mon 04:29:20 PM 35.9647 -90.2594 357° North 407 468 37,000  Level Memphis Center
Mon 04:30:20 PM 36.0836 -90.2697 356° North 412 474 37,000  Level Memphis Center
Mon 04:31:20 PM 36.2003 -90.2797 356° North 422 486 37,000  Level Memphis Center
Mon 04:32:20 PM 36.3211 -90.2875 357° North 422 486 37,000  Level Memphis Center
Mon 04:33:20 PM 36.4358 -90.3158 349° North 422 486 37,000  Level Memphis Center
Mon 04:34:20 PM 36.5464 -90.3492 346° North 422 486 37,000  Level Memphis Center
Mon 04:35:52 PM 36.7358 -90.3947 349° North 420 483 37,000  Level Kansas City Center
Mon 04:36:54 PM 36.8492 -90.4289 346° North 418 481 37,000  Level Kansas City Center
Mon 04:37:56 PM 36.9639 -90.4614 347° North 419 482 37,000  Level Kansas City Center
Mon 04:38:58 PM 37.0789 -90.4947 347° North 421 484 37,000  Level Kansas City Center
Mon 04:40:00 PM 37.1947 -90.5272 347° North 423 487 37,000  Level Kansas City Center
Mon 04:41:02 PM 37.3103 -90.5608 347° North 423 487 37,000  Level Kansas City Center
Mon 04:42:04 PM 37.4275 -90.5947 347° North 425 489 37,000  Level Kansas City Center
Mon 04:43:06 PM 37.5431 -90.6283 347° North 426 490 37,000  Level Kansas City Center
Mon 04:44:08 PM 37.6831 -90.6681 347° North 428 493 37,000  Level Kansas City Center
Mon 04:45:10 PM 37.8008 -90.7042 346° North 431 496 37,000  Level Kansas City Center
Mon 04:46:12 PM 37.9181 -90.7383 347° North 433 498 37,000  Level Kansas City Center
Mon 04:47:14 PM 38.0367 -90.7739 347° North 434 499 37,000  Level Kansas City Center
Mon 04:48:16 PM 38.1553 -90.8106 346° North 436 502 37,000  Level Kansas City Center
Mon 04:49:18 PM 38.2750 -90.8450 347° North 438 504 37,000  Level Kansas City Center
Mon 04:50:20 PM 38.4189 -90.8894 346° North 441 507 37,000  Level Kansas City Center
Mon 04:51:22 PM 38.5400 -90.9256 347° North 442 509 37,000  Level Kansas City Center
Mon 04:52:24 PM 38.6628 -90.9544 350° North 445 512 37,000  Level Kansas City Center
Mon 04:53:26 PM 38.7861 -90.9250 11° North 449 517 37,000 -226 Level Kansas City Center
Mon 04:55:30 PM 39.0222 -90.7961 23° Northeast 458 527 36,300 -548 Descending Kansas City Center
Mon 04:56:32 PM 39.1458 -90.7292 23° Northeast 471 542 35,300 -1,016 Descending Kansas City Center
Mon 04:57:34 PM 39.2703 -90.6611 23° Northeast 481 554 34,200 -1,113 Descending Kansas City Center
Mon 04:58:36 PM 39.4119 -90.5814 23° Northeast 467 537 33,000 -576 Descending Kansas City Center
Mon 04:59:39 PM 39.5289 -90.5175 23° Northeast 458 527 33,000  Level Kansas City Center
Mon 05:00:41 PM 39.6472 -90.4519 23° Northeast 460 529 33,000  Level Kansas City Center
Mon 05:01:43 PM 39.7717 -90.3817 23° Northeast 463 533 33,000  Level Kansas City Center
Mon 05:02:45 PM 39.8900 -90.3156 23° Northeast 463 533 33,000  Level Kansas City Center
Mon 05:03:48 PM 40.0078 -90.2492 23° Northeast 461 531 33,000  Level Kansas City Center
Mon 05:04:49 PM 40.1258 -90.1825 23° Northeast 462 532 33,000  Level Kansas City Center
Mon 05:05:51 PM 40.2433 -90.1167 23° Northeast 461 531 33,000  Level Kansas City Center
Mon 05:06:53 PM 40.3850 -90.0356 24° Northeast 462 532 33,000 -48 Level Kansas City Center
Mon 05:07:55 PM 40.5025 -89.9686 23° Northeast 462 532 32,900 -919 Descending Kansas City Center
Mon 05:08:57 PM 40.6289 -89.8958 24° Northeast 460 529 31,100 -1,597 Descending Kansas City Center
Mon 05:09:59 PM 40.7322 -89.8361 24° Northeast 464 534 29,600 -1,703 Descending Kansas City Center
Mon 05:10:11 PM 40.7642 -89.7903 24° Northeast 468 539 29,000 -1,541 Descending Chicago Center
Mon 05:11:00 PM 40.8343 -89.7763 24° Northeast  Level FlightAware Approximate
Mon 05:11:13 PM 40.8531 -89.6706 46° Northeast 455 524 27,700  Level Chicago Center
Mon 05:12:15 PM 40.9339 -89.5528 48° Northeast 437 503 26,300 -1,597 Descending Chicago Center
Mon 05:13:17 PM 41.0161 -89.4364 47° Northeast 437 503 24,400 -1,984 Descending Chicago Center
Mon 05:14:19 PM 41.0975 -89.3183 48° Northeast 435 501 22,200 -2,160 Descending Chicago Center
Mon 05:15:22 PM 41.1797 -89.1983 48° Northeast 437 503 19,900 -2,304 Descending Chicago Center
Mon 05:16:24 PM 41.2711 -89.0631 48° Northeast 416 479 17,400 -2,274 Descending Chicago Center
Mon 05:17:26 PM 41.3475 -88.9525 47° Northeast 411 473 15,200 -1,984 Descending Chicago Center
Mon 05:18:28 PM 41.4178 -88.8469 48° Northeast 385 443 13,300 -1,790 Descending Chicago Center
Mon 05:19:30 PM 41.4861 -88.7467 48° Northeast 365 420 11,500 -1,113 Descending Chicago Center
Mon 05:20:32 PM 41.5397 -88.6378 57° Northeast 353 406 11,000 -435 Descending Chicago Center
Mon 05:21:34 PM 41.5900 -88.5108 62° Northeast 319 367 10,600 -968 Descending Chicago Center
Mon 05:22:36 PM 41.6350 -88.4219 56° Northeast 290 334 9,000 -1,500 Descending Chicago Center
Mon 05:23:38 PM 41.6839 -88.3442 50° Northeast 272 313 7,500 -968 Descending Chicago Center
Mon 05:24:40 PM 41.7503 -88.3336 North 237 273 7,000 -240 Descending Chicago Center
Mon 05:25:43 PM 41.8036 -88.3261 North 197 227 7,000 -48 Level Chicago Center
Mon 05:26:45 PM 41.8544 -88.3161 North 185 213 6,900 -726 Descending Chicago Center
Mon 05:27:47 PM 41.9189 -88.3172 359° North 192 221 5,500 -919 Descending Chicago Center
Mon 05:28:49 PM 41.9628 -88.2956 20° North 207 238 5,000 -242 Descending Chicago Center
Mon 05:29:51 PM 41.9669 -88.2225 86° East 204 235 5,000 -484 Level Chicago Center
Mon 05:30:53 PM 41.9689 -88.1528 88° East 196 226 4,000 -1,156 Descending Chicago Center
Mon 05:31:40 PM 41.9667 -88.0833 92° East 185 213 2,900 -1,404 Descending Chicago TRACON

Login

Don't have an account? Register now (free) for customized features, flight alerts, and more!